< Typhoon 201517 2015 Season Typhoon 201519 >
Typhoon 201518 (ETAU)
General InformationDetailed Track InformationTrack Information on Google MapsForecast History on Google MapsAccess Analytics MapList of All Images || NewsDisaster Info.WeblogTrackbackTyphoon FrontTwiphoonTyphoon Now!Typhoon ImaginationDisaster Info. XMLResourceGoogle EarthGE AnimationAtom FeedGeoJSON
Detalied Best Track Wind (Time Zone = UTC)
Year Month Day Hour Lat. Long. Wind (kt) Gust (kt) Direc. of Major Storm Axis Radius of Major Storm Axis (nm) Radius of Minor Storm Axis (nm) Direc. of Major Gale Axis Radius of Major Gale Axis (nm) Radius of Minor Gale Axis (nm) Image
2015 9 6 00 19.8 139.7 0 0 - - - - - - Image
2015 9 6 06 20.4 139.4 0 0 - - - - - - Image
2015 9 6 12 21.2 139.2 0 0 - - - - - - Image
2015 9 6 18 22.1 139.0 0 0 - - - - - - Image
2015 9 7 00 23.1 138.8 0 0 - - - - - - Image
2015 9 7 06 24.1 138.6 0 0 - - - - - - Image
2015 9 7 12 25.1 138.4 35 0 - - - NE 120 90 Image
2015 9 7 18 26.3 138.3 40 0 - - - NE 120 90 Image
2015 9 8 00 27.7 138.3 45 0 - - - NE 150 90 Image
2015 9 8 06 29.3 138.3 50 0 - - - NE 180 90 Image
2015 9 8 12 31.0 138.3 50 0 - - - NE 240 90 Image
2015 9 8 15 32.2 138.0 50 0 - - - NE 240 120 Image
2015 9 8 18 33.1 137.6 50 0 - - - NE 240 120 Image
2015 9 8 21 33.8 137.3 45 0 - - - NE 210 150 Image
2015 9 9 00 34.5 137.1 45 0 - - - N 210 150 Image
2015 9 9 03 35.9 136.7 35 0 - - - N 210 120 Image
2015 9 9 06 37.2 136.3 0 0 - - - - - - Image
2015 9 9 12 38.0 135.0 0 0 - - - - - - Image
2015 9 9 18 39.0 134.4 0 0 - - - - - - Image
2015 9 10 00 39.3 134.7 0 0 - - - - - - Image
2015 9 10 06 39.9 135.2 0 0 - - - - - - Image
2015 9 10 12 39.9 135.6 0 0 - - - - - - Image
2015 9 10 18 39.9 136.0 0 0 - - - - - - Image
2015 9 11 00 40.0 136.8 0 0 - - - - - - Image
2015 9 11 06 40.5 137.7 0 0 - - - - - - Image
2015 9 11 12 41.0 138.5 0 0 - - - - - - Image
Japan Meteorological Agency Best Track Data | Correction Date : 2015-10-15
< Typhoon 201517 2015 Season Typhoon 201519 >

Help